MMVA/VSA METAR and TAF weather

Enter ICAO airport designator
Station Type Date Time Source
MMVA METAR 2021/02/24 16:40 UTC NOAA

MMVA 241640Z 08010KT 5SM SCT010 BKN015 27/22 A3008 RMK 8/800 HZY


Station Type Date Time Source
MMVA Decoded METAR 2021/02/24 16:40 UTC NOAA

Villahermosa , Mexico (MMVA) 18-00N 092-49W
Feb 24, 2021 - 11:40 AM EST / 2021.02.24 1640 UTC
Wind: from the E (080 degrees) at 12 MPH (10 KT):0
Visibility: 5 mile(s):0
Sky conditions: mostly cloudy
Temperature: 80 F (27 C)
Dew Point: 71 F (22 C)
Relative Humidity: 74%
Pressure (altimeter): 30.08 in. Hg (1018 hPa)
ob: MMVA 241640Z 08010KT 5SM SCT010 BKN015 27/22 A3008 RMK 8/800 HZY
cycle: 16

Station Type Date Time Source
MMVA TAF 2021/02/24 18:55 UTC NOAA

TAF MMVA 241650Z 2418/2518 08008KT 5SM HZ BKN015
BECMG 2420/2421 06015KT BKN025
FM250200 08010KT 6SM HZ SCT025
BECMG 2505/2506 09006KT
FM251000 09005KT 5SM HZ BKN020
TEMPO 2511/2515 3SM BR HZ OVC010

Example: see airport list